sensor_id;sensor_type;location;lat;lon;timestamp;P1;durP1;ratioP1;P2;durP2;ratioP2
56381;SDS011;50261;51.150;4.470;2023-04-03T00:01:55;6.35;;;5.10;;
56381;SDS011;50261;51.150;4.470;2023-04-03T00:04:21;12.02;;;5.38;;
56381;SDS011;50261;51.150;4.470;2023-04-03T00:06:47;8.35;;;5.38;;
56381;SDS011;50261;51.150;4.470;2023-04-03T00:09:12;10.35;;;5.15;;
56381;SDS011;50261;51.150;4.470;2023-04-03T00:11:38;7.80;;;5.15;;
56381;SDS011;50261;51.150;4.470;2023-04-03T00:14:04;7.28;;;4.40;;
56381;SDS011;50261;51.150;4.470;2023-04-03T00:16:30;6.68;;;4.32;;
56381;SDS011;50261;51.150;4.470;2023-04-03T00:18:55;7.68;;;4.60;;
56381;SDS011;50261;51.150;4.470;2023-04-03T00:21:21;7.78;;;4.53;;
56381;SDS011;50261;51.150;4.470;2023-04-03T00:23:47;6.88;;;5.00;;
56381;SDS011;50261;51.150;4.470;2023-04-03T00:26:12;6.88;;;4.53;;
56381;SDS011;50261;51.150;4.470;2023-04-03T00:28:39;7.47;;;4.60;;
56381;SDS011;50261;51.150;4.470;2023-04-03T00:31:05;8.60;;;4.30;;
56381;SDS011;50261;51.150;4.470;2023-04-03T00:33:30;7.82;;;4.53;;
56381;SDS011;50261;51.150;4.470;2023-04-03T00:35:56;9.13;;;4.55;;
56381;SDS011;50261;51.150;4.470;2023-04-03T00:38:22;6.85;;;4.78;;
56381;SDS011;50261;51.150;4.470;2023-04-03T00:40:48;8.30;;;4.90;;
56381;SDS011;50261;51.150;4.470;2023-04-03T00:43:15;8.65;;;4.57;;
56381;SDS011;50261;51.150;4.470;2023-04-03T00:45:43;7.45;;;4.28;;
56381;SDS011;50261;51.150;4.470;2023-04-03T00:48:13;7.72;;;4.15;;
56381;SDS011;50261;51.150;4.470;2023-04-03T00:50:41;7.78;;;4.85;;
56381;SDS011;50261;51.150;4.470;2023-04-03T00:53:08;9.52;;;4.63;;
56381;SDS011;50261;51.150;4.470;2023-04-03T00:55:35;8.75;;;4.20;;
56381;SDS011;50261;51.150;4.470;2023-04-03T00:58:02;8.05;;;4.85;;
56381;SDS011;50261;51.150;4.470;2023-04-03T01:00:28;6.35;;;4.50;;
56381;SDS011;50261;51.150;4.470;2023-04-03T01:02:53;11.50;;;4.90;;
56381;SDS011;50261;51.150;4.470;2023-04-03T01:05:20;6.28;;;4.55;;
56381;SDS011;50261;51.150;4.470;2023-04-03T01:07:46;6.72;;;4.57;;
56381;SDS011;50261;51.150;4.470;2023-04-03T01:10:12;8.50;;;5.18;;
56381;SDS011;50261;51.150;4.470;2023-04-03T01:12:40;7.38;;;5.00;;
56381;SDS011;50261;51.150;4.470;2023-04-03T01:15:08;8.23;;;4.40;;
56381;SDS011;50261;51.150;4.470;2023-04-03T01:17:36;8.00;;;4.22;;
56381;SDS011;50261;51.150;4.470;2023-04-03T01:25:11;7.28;;;4.53;;
56381;SDS011;50261;51.150;4.470;2023-04-03T01:27:37;7.85;;;4.80;;
56381;SDS011;50261;51.150;4.470;2023-04-03T01:30:03;8.82;;;4.70;;
56381;SDS011;50261;51.150;4.470;2023-04-03T01:32:29;7.35;;;4.63;;
56381;SDS011;50261;51.150;4.470;2023-04-03T01:34:55;7.22;;;4.65;;
56381;SDS011;50261;51.150;4.470;2023-04-03T01:37:21;5.82;;;4.60;;
56381;SDS011;50261;51.150;4.470;2023-04-03T01:39:46;11.13;;;5.30;;
56381;SDS011;50261;51.150;4.470;2023-04-03T01:42:12;6.97;;;4.63;;
56381;SDS011;50261;51.150;4.470;2023-04-03T01:44:41;6.57;;;4.90;;
56381;SDS011;50261;51.150;4.470;2023-04-03T01:47:07;8.48;;;4.63;;
56381;SDS011;50261;51.150;4.470;2023-04-03T01:49:33;9.13;;;4.50;;
56381;SDS011;50261;51.150;4.470;2023-04-03T01:51:59;7.18;;;4.63;;
56381;SDS011;50261;51.150;4.470;2023-04-03T01:54:25;8.82;;;4.43;;
56381;SDS011;50261;51.150;4.470;2023-04-03T01:56:51;7.78;;;4.50;;
56381;SDS011;50261;51.150;4.470;2023-04-03T01:59:17;5.32;;;4.00;;
56381;SDS011;50261;51.150;4.470;2023-04-03T02:01:44;9.15;;;4.97;;
56381;SDS011;50261;51.150;4.470;2023-04-03T02:04:11;6.70;;;4.50;;
56381;SDS011;50261;51.150;4.470;2023-04-03T02:06:36;7.10;;;4.65;;
56381;SDS011;50261;51.150;4.470;2023-04-03T02:09:02;6.18;;;4.50;;
56381;SDS011;50261;51.150;4.470;2023-04-03T02:11:29;7.30;;;4.45;;
56381;SDS011;50261;51.150;4.470;2023-04-03T02:13:55;8.98;;;4.43;;
56381;SDS011;50261;51.150;4.470;2023-04-03T02:16:21;7.38;;;4.55;;
56381;SDS011;50261;51.150;4.470;2023-04-03T02:18:48;8.95;;;5.00;;
56381;SDS011;50261;51.150;4.470;2023-04-03T02:21:14;7.00;;;4.30;;
56381;SDS011;50261;51.150;4.470;2023-04-03T02:23:39;7.03;;;4.65;;
56381;SDS011;50261;51.150;4.470;2023-04-03T02:26:07;6.55;;;4.68;;
56381;SDS011;50261;51.150;4.470;2023-04-03T02:28:33;7.53;;;4.80;;
56381;SDS011;50261;51.150;4.470;2023-04-03T02:30:58;6.38;;;4.80;;
56381;SDS011;50261;51.150;4.470;2023-04-03T02:33:24;8.40;;;4.60;;
56381;SDS011;50261;51.150;4.470;2023-04-03T02:35:57;8.13;;;4.95;;
56381;SDS011;50261;51.150;4.470;2023-04-03T02:38:22;6.80;;;4.65;;
56381;SDS011;50261;51.150;4.470;2023-04-03T02:40:48;7.40;;;4.97;;
56381;SDS011;50261;51.150;4.470;2023-04-03T02:43:14;7.45;;;4.97;;
56381;SDS011;50261;51.150;4.470;2023-04-03T02:45:40;8.38;;;5.10;;
56381;SDS011;50261;51.150;4.470;2023-04-03T02:48:05;7.22;;;5.05;;
56381;SDS011;50261;51.150;4.470;2023-04-03T02:50:31;7.55;;;4.60;;
56381;SDS011;50261;51.150;4.470;2023-04-03T02:52:57;7.75;;;4.95;;
56381;SDS011;50261;51.150;4.470;2023-04-03T02:55:23;9.10;;;5.00;;
56381;SDS011;50261;51.150;4.470;2023-04-03T02:57:51;8.85;;;4.82;;
56381;SDS011;50261;51.150;4.470;2023-04-03T03:00:17;7.72;;;5.13;;
56381;SDS011;50261;51.150;4.470;2023-04-03T03:02:43;7.60;;;5.00;;
56381;SDS011;50261;51.150;4.470;2023-04-03T03:05:09;8.35;;;5.43;;
56381;SDS011;50261;51.150;4.470;2023-04-03T03:07:35;8.63;;;5.65;;
56381;SDS011;50261;51.150;4.470;2023-04-03T03:10:01;8.27;;;5.20;;
56381;SDS011;50261;51.150;4.470;2023-04-03T03:12:26;10.00;;;4.72;;
56381;SDS011;50261;51.150;4.470;2023-04-03T03:14:52;9.60;;;5.05;;
56381;SDS011;50261;51.150;4.470;2023-04-03T03:17:18;6.35;;;5.07;;
56381;SDS011;50261;51.150;4.470;2023-04-03T03:19:44;7.57;;;5.45;;
56381;SDS011;50261;51.150;4.470;2023-04-03T03:22:11;9.00;;;5.32;;
56381;SDS011;50261;51.150;4.470;2023-04-03T03:24:36;6.30;;;4.90;;
56381;SDS011;50261;51.150;4.470;2023-04-03T03:27:02;8.15;;;5.00;;
56381;SDS011;50261;51.150;4.470;2023-04-03T03:29:28;10.05;;;4.78;;
56381;SDS011;50261;51.150;4.470;2023-04-03T03:31:54;9.80;;;5.38;;
56381;SDS011;50261;51.150;4.470;2023-04-03T03:34:20;8.63;;;4.90;;
56381;SDS011;50261;51.150;4.470;2023-04-03T03:36:46;6.57;;;5.07;;
56381;SDS011;50261;51.150;4.470;2023-04-03T03:39:11;7.05;;;4.78;;
56381;SDS011;50261;51.150;4.470;2023-04-03T03:41:37;8.38;;;5.00;;
56381;SDS011;50261;51.150;4.470;2023-04-03T03:44:04;6.07;;;4.50;;
56381;SDS011;50261;51.150;4.470;2023-04-03T03:46:31;7.82;;;5.80;;
56381;SDS011;50261;51.150;4.470;2023-04-03T03:48:57;10.23;;;5.22;;
56381;SDS011;50261;51.150;4.470;2023-04-03T03:51:23;6.82;;;4.72;;
56381;SDS011;50261;51.150;4.470;2023-04-03T03:53:49;7.55;;;5.25;;
56381;SDS011;50261;51.150;4.470;2023-04-03T03:56:17;11.13;;;5.40;;
56381;SDS011;50261;51.150;4.470;2023-04-03T03:58:44;9.57;;;4.93;;
56381;SDS011;50261;51.150;4.470;2023-04-03T04:01:11;9.73;;;5.38;;
56381;SDS011;50261;51.150;4.470;2023-04-03T04:03:45;8.77;;;4.37;;
56381;SDS011;50261;51.150;4.470;2023-04-03T04:06:15;11.25;;;5.40;;
56381;SDS011;50261;51.150;4.470;2023-04-03T04:08:41;9.02;;;5.18;;
56381;SDS011;50261;51.150;4.470;2023-04-03T04:11:09;9.02;;;5.55;;
56381;SDS011;50261;51.150;4.470;2023-04-03T04:13:36;8.05;;;4.95;;
56381;SDS011;50261;51.150;4.470;2023-04-03T04:16:03;9.13;;;5.32;;
56381;SDS011;50261;51.150;4.470;2023-04-03T04:18:29;8.07;;;4.88;;
56381;SDS011;50261;51.150;4.470;2023-04-03T04:20:55;10.48;;;5.82;;
56381;SDS011;50261;51.150;4.470;2023-04-03T04:23:24;7.70;;;5.60;;
56381;SDS011;50261;51.150;4.470;2023-04-03T04:25:50;9.57;;;5.80;;
56381;SDS011;50261;51.150;4.470;2023-04-03T04:28:17;8.10;;;5.72;;
56381;SDS011;50261;51.150;4.470;2023-04-03T04:30:45;6.32;;;5.28;;
56381;SDS011;50261;51.150;4.470;2023-04-03T04:33:12;9.65;;;5.63;;
56381;SDS011;50261;51.150;4.470;2023-04-03T04:35:41;6.85;;;5.28;;
56381;SDS011;50261;51.150;4.470;2023-04-03T04:38:07;8.98;;;5.90;;
56381;SDS011;50261;51.150;4.470;2023-04-03T04:40:34;8.27;;;5.40;;
56381;SDS011;50261;51.150;4.470;2023-04-03T04:43:00;8.07;;;5.57;;
56381;SDS011;50261;51.150;4.470;2023-04-03T04:45:25;8.60;;;5.93;;
56381;SDS011;50261;51.150;4.470;2023-04-03T04:47:53;7.82;;;5.63;;
56381;SDS011;50261;51.150;4.470;2023-04-03T04:50:20;9.98;;;5.65;;
56381;SDS011;50261;51.150;4.470;2023-04-03T04:52:46;9.90;;;5.65;;
56381;SDS011;50261;51.150;4.470;2023-04-03T04:55:12;9.07;;;5.68;;
56381;SDS011;50261;51.150;4.470;2023-04-03T04:57:37;9.90;;;5.47;;
56381;SDS011;50261;51.150;4.470;2023-04-03T05:00:05;9.43;;;5.72;;
56381;SDS011;50261;51.150;4.470;2023-04-03T05:02:30;13.77;;;6.38;;
56381;SDS011;50261;51.150;4.470;2023-04-03T05:04:57;10.82;;;6.28;;
56381;SDS011;50261;51.150;4.470;2023-04-03T05:07:26;11.43;;;6.55;;
56381;SDS011;50261;51.150;4.470;2023-04-03T05:09:52;10.52;;;6.13;;
56381;SDS011;50261;51.150;4.470;2023-04-03T05:12:18;9.45;;;5.95;;
56381;SDS011;50261;51.150;4.470;2023-04-03T05:14:51;9.15;;;6.07;;
56381;SDS011;50261;51.150;4.470;2023-04-03T05:17:17;9.25;;;6.38;;
56381;SDS011;50261;51.150;4.470;2023-04-03T05:19:48;10.73;;;5.88;;
56381;SDS011;50261;51.150;4.470;2023-04-03T05:22:15;7.88;;;5.55;;
56381;SDS011;50261;51.150;4.470;2023-04-03T05:24:40;10.00;;;5.90;;
56381;SDS011;50261;51.150;4.470;2023-04-03T05:27:07;7.85;;;6.07;;
56381;SDS011;50261;51.150;4.470;2023-04-03T05:29:37;8.55;;;5.72;;
56381;SDS011;50261;51.150;4.470;2023-04-03T05:32:04;8.82;;;5.57;;
56381;SDS011;50261;51.150;4.470;2023-04-03T05:34:30;7.70;;;5.85;;
56381;SDS011;50261;51.150;4.470;2023-04-03T05:36:56;8.52;;;6.15;;
56381;SDS011;50261;51.150;4.470;2023-04-03T05:39:22;8.50;;;6.03;;
56381;SDS011;50261;51.150;4.470;2023-04-03T05:41:49;10.93;;;6.82;;
56381;SDS011;50261;51.150;4.470;2023-04-03T05:44:15;12.65;;;6.45;;
56381;SDS011;50261;51.150;4.470;2023-04-03T05:46:43;12.52;;;6.50;;
56381;SDS011;50261;51.150;4.470;2023-04-03T05:49:09;8.95;;;6.30;;
56381;SDS011;50261;51.150;4.470;2023-04-03T05:51:36;9.80;;;6.10;;
56381;SDS011;50261;51.150;4.470;2023-04-03T05:54:25;12.52;;;6.47;;
56381;SDS011;50261;51.150;4.470;2023-04-03T05:56:54;7.72;;;6.00;;
56381;SDS011;50261;51.150;4.470;2023-04-03T05:59:21;9.35;;;6.32;;
56381;SDS011;50261;51.150;4.470;2023-04-03T06:01:49;10.23;;;6.28;;
56381;SDS011;50261;51.150;4.470;2023-04-03T06:04:15;11.95;;;6.45;;
56381;SDS011;50261;51.150;4.470;2023-04-03T06:06:48;9.57;;;6.15;;
56381;SDS011;50261;51.150;4.470;2023-04-03T06:09:15;10.57;;;6.97;;
56381;SDS011;50261;51.150;4.470;2023-04-03T06:11:41;12.63;;;6.60;;
56381;SDS011;50261;51.150;4.470;2023-04-03T06:14:07;10.60;;;6.07;;
56381;SDS011;50261;51.150;4.470;2023-04-03T06:16:34;10.05;;;6.00;;
56381;SDS011;50261;51.150;4.470;2023-04-03T06:18:59;9.65;;;5.90;;
56381;SDS011;50261;51.150;4.470;2023-04-03T06:21:26;8.02;;;6.45;;
56381;SDS011;50261;51.150;4.470;2023-04-03T06:23:52;8.85;;;6.07;;
56381;SDS011;50261;51.150;4.470;2023-04-03T06:26:17;7.38;;;5.40;;
56381;SDS011;50261;51.150;4.470;2023-04-03T06:28:43;8.45;;;5.28;;
56381;SDS011;50261;51.150;4.470;2023-04-03T06:31:11;10.00;;;5.10;;
56381;SDS011;50261;51.150;4.470;2023-04-03T06:33:36;8.35;;;5.65;;
56381;SDS011;50261;51.150;4.470;2023-04-03T06:36:05;9.30;;;5.35;;
56381;SDS011;50261;51.150;4.470;2023-04-03T06:38:31;11.07;;;5.80;;
56381;SDS011;50261;51.150;4.470;2023-04-03T06:40:57;7.28;;;4.70;;
56381;SDS011;50261;51.150;4.470;2023-04-03T06:43:22;8.68;;;5.53;;
56381;SDS011;50261;51.150;4.470;2023-04-03T06:45:48;8.77;;;4.75;;
56381;SDS011;50261;51.150;4.470;2023-04-03T06:48:13;12.32;;;5.25;;
56381;SDS011;50261;51.150;4.470;2023-04-03T06:50:39;6.70;;;4.43;;
56381;SDS011;50261;51.150;4.470;2023-04-03T06:53:05;9.52;;;5.00;;
56381;SDS011;50261;51.150;4.470;2023-04-03T06:55:31;8.10;;;4.50;;
56381;SDS011;50261;51.150;4.470;2023-04-03T06:57:57;8.40;;;4.78;;
56381;SDS011;50261;51.150;4.470;2023-04-03T07:00:22;8.48;;;4.93;;
56381;SDS011;50261;51.150;4.470;2023-04-03T07:02:48;8.65;;;5.07;;
56381;SDS011;50261;51.150;4.470;2023-04-03T07:05:14;9.82;;;4.60;;
56381;SDS011;50261;51.150;4.470;2023-04-03T07:07:40;10.02;;;4.20;;
56381;SDS011;50261;51.150;4.470;2023-04-03T07:10:06;9.27;;;4.35;;
56381;SDS011;50261;51.150;4.470;2023-04-03T07:12:32;7.75;;;4.55;;
56381;SDS011;50261;51.150;4.470;2023-04-03T07:14:58;5.65;;;4.05;;
56381;SDS011;50261;51.150;4.470;2023-04-03T07:17:23;7.80;;;4.28;;
56381;SDS011;50261;51.150;4.470;2023-04-03T07:19:50;9.40;;;4.03;;
56381;SDS011;50261;51.150;4.470;2023-04-03T07:22:16;10.82;;;4.40;;
56381;SDS011;50261;51.150;4.470;2023-04-03T07:24:42;9.50;;;4.22;;
56381;SDS011;50261;51.150;4.470;2023-04-03T07:27:08;8.85;;;3.92;;
56381;SDS011;50261;51.150;4.470;2023-04-03T07:29:34;6.07;;;3.72;;
56381;SDS011;50261;51.150;4.470;2023-04-03T07:32:01;6.60;;;3.40;;
56381;SDS011;50261;51.150;4.470;2023-04-03T07:34:26;9.23;;;3.88;;
56381;SDS011;50261;51.150;4.470;2023-04-03T07:36:52;6.95;;;4.03;;
56381;SDS011;50261;51.150;4.470;2023-04-03T07:39:18;7.35;;;3.90;;
56381;SDS011;50261;51.150;4.470;2023-04-03T07:41:44;7.45;;;3.75;;
56381;SDS011;50261;51.150;4.470;2023-04-03T07:44:09;10.73;;;3.80;;
56381;SDS011;50261;51.150;4.470;2023-04-03T07:46:36;5.40;;;3.53;;
56381;SDS011;50261;51.150;4.470;2023-04-03T07:49:02;10.40;;;3.97;;
56381;SDS011;50261;51.150;4.470;2023-04-03T07:51:27;6.45;;;3.63;;
56381;SDS011;50261;51.150;4.470;2023-04-03T07:53:55;7.70;;;3.65;;
56381;SDS011;50261;51.150;4.470;2023-04-03T07:56:20;7.45;;;4.03;;
56381;SDS011;50261;51.150;4.470;2023-04-03T07:58:46;6.15;;;3.45;;
56381;SDS011;50261;51.150;4.470;2023-04-03T08:01:12;6.70;;;3.30;;
56381;SDS011;50261;51.150;4.470;2023-04-03T08:03:38;7.05;;;3.70;;
56381;SDS011;50261;51.150;4.470;2023-04-03T08:06:05;6.50;;;3.05;;
56381;SDS011;50261;51.150;4.470;2023-04-03T08:08:31;4.97;;;3.15;;
56381;SDS011;50261;51.150;4.470;2023-04-03T08:10:58;8.75;;;3.25;;
56381;SDS011;50261;51.150;4.470;2023-04-03T08:13:24;5.05;;;2.83;;
56381;SDS011;50261;51.150;4.470;2023-04-03T08:15:50;5.38;;;2.72;;
56381;SDS011;50261;51.150;4.470;2023-04-03T08:18:17;6.38;;;2.90;;
56381;SDS011;50261;51.150;4.470;2023-04-03T08:20:43;7.13;;;3.25;;
56381;SDS011;50261;51.150;4.470;2023-04-03T08:23:10;7.00;;;3.38;;
56381;SDS011;50261;51.150;4.470;2023-04-03T08:25:39;5.38;;;2.83;;
56381;SDS011;50261;51.150;4.470;2023-04-03T08:28:05;8.43;;;2.78;;
56381;SDS011;50261;51.150;4.470;2023-04-03T08:30:31;5.93;;;2.80;;
56381;SDS011;50261;51.150;4.470;2023-04-03T08:32:56;6.03;;;2.58;;
56381;SDS011;50261;51.150;4.470;2023-04-03T08:35:22;5.03;;;2.50;;
56381;SDS011;50261;51.150;4.470;2023-04-03T08:37:48;7.97;;;2.45;;
56381;SDS011;50261;51.150;4.470;2023-04-03T08:40:14;5.88;;;2.65;;
56381;SDS011;50261;51.150;4.470;2023-04-03T08:48:06;7.43;;;2.65;;
56381;SDS011;50261;51.150;4.470;2023-04-03T08:50:37;5.93;;;2.25;;
56381;SDS011;50261;51.150;4.470;2023-04-03T08:53:05;4.32;;;2.20;;
56381;SDS011;50261;51.150;4.470;2023-04-03T08:57:59;4.88;;;2.05;;
56381;SDS011;50261;51.150;4.470;2023-04-03T09:00:27;8.32;;;2.28;;
56381;SDS011;50261;51.150;4.470;2023-04-03T09:02:54;8.55;;;2.50;;
56381;SDS011;50261;51.150;4.470;2023-04-03T09:05:25;6.15;;;2.00;;
56381;SDS011;50261;51.150;4.470;2023-04-03T09:08:16;4.30;;;1.80;;
56381;SDS011;50261;51.150;4.470;2023-04-03T09:10:44;7.28;;;2.17;;
56381;SDS011;50261;51.150;4.470;2023-04-03T09:15:41;5.07;;;1.88;;
56381;SDS011;50261;51.150;4.470;2023-04-03T09:18:14;3.58;;;1.63;;
56381;SDS011;50261;51.150;4.470;2023-04-03T09:23:18;7.05;;;1.50;;
56381;SDS011;50261;51.150;4.470;2023-04-03T09:25:44;5.70;;;1.85;;
56381;SDS011;50261;51.150;4.470;2023-04-03T09:28:10;5.28;;;1.88;;
56381;SDS011;50261;51.150;4.470;2023-04-03T09:30:36;5.50;;;1.58;;
56381;SDS011;50261;51.150;4.470;2023-04-03T09:33:03;3.72;;;1.60;;
56381;SDS011;50261;51.150;4.470;2023-04-03T09:35:30;6.82;;;2.13;;
56381;SDS011;50261;51.150;4.470;2023-04-03T09:38:01;5.07;;;2.20;;
56381;SDS011;50261;51.150;4.470;2023-04-03T09:40:34;5.75;;;1.77;;
56381;SDS011;50261;51.150;4.470;2023-04-03T09:43:18;4.60;;;1.70;;
56381;SDS011;50261;51.150;4.470;2023-04-03T09:45:46;3.15;;;1.33;;
56381;SDS011;50261;51.150;4.470;2023-04-03T09:55:51;4.45;;;1.50;;
56381;SDS011;50261;51.150;4.470;2023-04-03T09:58:27;6.57;;;2.08;;
56381;SDS011;50261;51.150;4.470;2023-04-03T10:00:55;4.65;;;1.70;;
56381;SDS011;50261;51.150;4.470;2023-04-03T10:03:26;3.35;;;1.67;;
56381;SDS011;50261;51.150;4.470;2023-04-03T10:05:53;7.13;;;1.75;;
56381;SDS011;50261;51.150;4.470;2023-04-03T10:10:47;4.03;;;1.50;;
56381;SDS011;50261;51.150;4.470;2023-04-03T10:15:41;3.75;;;1.50;;
56381;SDS011;50261;51.150;4.470;2023-04-03T10:18:19;5.22;;;1.60;;
56381;SDS011;50261;51.150;4.470;2023-04-03T10:20:49;6.38;;;1.42;;
56381;SDS011;50261;51.150;4.470;2023-04-03T10:23:18;4.28;;;1.40;;
56381;SDS011;50261;51.150;4.470;2023-04-03T10:26:07;3.40;;;1.40;;
56381;SDS011;50261;51.150;4.470;2023-04-03T10:41:34;3.05;;;1.30;;
56381;SDS011;50261;51.150;4.470;2023-04-03T10:54:58;5.63;;;1.25;;
56381;SDS011;50261;51.150;4.470;2023-04-03T10:57:25;4.03;;;1.27;;
56381;SDS011;50261;51.150;4.470;2023-04-03T10:59:53;4.47;;;1.17;;
56381;SDS011;50261;51.150;4.470;2023-04-03T11:02:25;3.88;;;1.23;;
56381;SDS011;50261;51.150;4.470;2023-04-03T11:04:53;3.65;;;0.90;;
56381;SDS011;50261;51.150;4.470;2023-04-03T11:07:24;4.40;;;1.45;;
56381;SDS011;50261;51.150;4.470;2023-04-03T11:09:53;4.00;;;1.20;;
56381;SDS011;50261;51.150;4.470;2023-04-03T11:12:24;2.33;;;0.98;;
56381;SDS011;50261;51.150;4.470;2023-04-03T11:14:51;1.85;;;0.85;;
56381;SDS011;50261;51.150;4.470;2023-04-03T11:22:33;3.25;;;0.93;;
56381;SDS011;50261;51.150;4.470;2023-04-03T11:27:43;1.98;;;0.80;;
56381;SDS011;50261;51.150;4.470;2023-04-03T11:33:00;1.15;;;0.65;;
56381;SDS011;50261;51.150;4.470;2023-04-03T11:35:28;2.13;;;0.82;;
56381;SDS011;50261;51.150;4.470;2023-04-03T11:37:55;1.13;;;0.60;;
56381;SDS011;50261;51.150;4.470;2023-04-03T11:40:26;1.73;;;0.73;;
56381;SDS011;50261;51.150;4.470;2023-04-03T11:50:47;2.45;;;0.60;;
56381;SDS011;50261;51.150;4.470;2023-04-03T11:55:52;1.55;;;0.60;;
56381;SDS011;50261;51.150;4.470;2023-04-03T11:58:19;3.28;;;1.00;;
56381;SDS011;50261;51.150;4.470;2023-04-03T12:04:13;1.25;;;0.55;;
56381;SDS011;50261;51.150;4.470;2023-04-03T12:06:41;4.63;;;0.77;;
56381;SDS011;50261;51.150;4.470;2023-04-03T12:08:53;1.52;;;0.70;;
56381;SDS011;50261;51.150;4.470;2023-04-03T12:11:24;1.83;;;0.80;;
56381;SDS011;50261;51.150;4.470;2023-04-03T12:16:24;2.17;;;0.80;;
56381;SDS011;50261;51.150;4.470;2023-04-03T12:22:04;1.70;;;0.68;;
56381;SDS011;50261;51.150;4.470;2023-04-03T12:28:57;1.67;;;0.82;;
56381;SDS011;50261;51.150;4.470;2023-04-03T12:31:24;1.98;;;0.68;;
56381;SDS011;50261;51.150;4.470;2023-04-03T12:34:06;1.55;;;0.80;;
56381;SDS011;50261;51.150;4.470;2023-04-03T12:36:38;3.40;;;1.00;;
56381;SDS011;50261;51.150;4.470;2023-04-03T12:41:51;2.63;;;0.70;;
56381;SDS011;50261;51.150;4.470;2023-04-03T12:46:48;3.03;;;1.08;;
56381;SDS011;50261;51.150;4.470;2023-04-03T12:49:18;2.35;;;0.77;;
56381;SDS011;50261;51.150;4.470;2023-04-03T12:51:48;1.17;;;0.70;;
56381;SDS011;50261;51.150;4.470;2023-04-03T12:54:18;1.50;;;0.80;;
56381;SDS011;50261;51.150;4.470;2023-04-03T12:56:45;2.20;;;1.00;;
56381;SDS011;50261;51.150;4.470;2023-04-03T12:59:24;3.35;;;0.82;;
56381;SDS011;50261;51.150;4.470;2023-04-03T13:01:58;2.35;;;0.95;;
56381;SDS011;50261;51.150;4.470;2023-04-03T13:04:24;3.75;;;1.00;;
56381;SDS011;50261;51.150;4.470;2023-04-03T13:06:51;2.30;;;0.73;;
56381;SDS011;50261;51.150;4.470;2023-04-03T13:09:28;2.88;;;0.80;;
56381;SDS011;50261;51.150;4.470;2023-04-03T13:14:26;2.50;;;1.10;;
56381;SDS011;50261;51.150;4.470;2023-04-03T13:17:03;1.73;;;1.00;;
56381;SDS011;50261;51.150;4.470;2023-04-03T13:19:29;2.72;;;1.00;;
56381;SDS011;50261;51.150;4.470;2023-04-03T13:21:59;4.45;;;1.00;;
56381;SDS011;50261;51.150;4.470;2023-04-03T13:24:27;5.35;;;1.40;;
56381;SDS011;50261;51.150;4.470;2023-04-03T13:26:55;3.05;;;1.00;;
56381;SDS011;50261;51.150;4.470;2023-04-03T13:29:25;5.70;;;1.20;;
56381;SDS011;50261;51.150;4.470;2023-04-03T13:31:55;3.13;;;0.85;;
56381;SDS011;50261;51.150;4.470;2023-04-03T13:34:22;1.20;;;0.70;;
56381;SDS011;50261;51.150;4.470;2023-04-03T13:41:45;6.25;;;1.33;;
56381;SDS011;50261;51.150;4.470;2023-04-03T13:44:23;1.88;;;1.00;;
56381;SDS011;50261;51.150;4.470;2023-04-03T13:49:18;2.03;;;0.93;;
56381;SDS011;50261;51.150;4.470;2023-04-03T13:51:44;1.60;;;0.68;;
56381;SDS011;50261;51.150;4.470;2023-04-03T13:54:52;1.35;;;0.88;;
56381;SDS011;50261;51.150;4.470;2023-04-03T13:56:58;3.22;;;1.10;;
56381;SDS011;50261;51.150;4.470;2023-04-03T13:59:32;2.53;;;0.80;;
56381;SDS011;50261;51.150;4.470;2023-04-03T14:04:28;1.40;;;0.77;;
56381;SDS011;50261;51.150;4.470;2023-04-03T14:06:55;2.85;;;0.70;;
56381;SDS011;50261;51.150;4.470;2023-04-03T14:09:21;5.57;;;0.98;;
56381;SDS011;50261;51.150;4.470;2023-04-03T14:11:48;2.63;;;1.00;;
56381;SDS011;50261;51.150;4.470;2023-04-03T14:14:17;4.70;;;1.00;;
56381;SDS011;50261;51.150;4.470;2023-04-03T14:16:45;2.92;;;0.90;;
56381;SDS011;50261;51.150;4.470;2023-04-03T14:19:17;4.18;;;0.95;;
56381;SDS011;50261;51.150;4.470;2023-04-03T14:21:42;3.17;;;1.00;;
56381;SDS011;50261;51.150;4.470;2023-04-03T14:24:08;1.58;;;0.90;;
56381;SDS011;50261;51.150;4.470;2023-04-03T14:26:34;1.95;;;0.90;;
56381;SDS011;50261;51.150;4.470;2023-04-03T14:29:00;2.13;;;0.90;;
56381;SDS011;50261;51.150;4.470;2023-04-03T14:31:25;2.47;;;1.00;;
56381;SDS011;50261;51.150;4.470;2023-04-03T14:33:51;2.20;;;1.20;;
56381;SDS011;50261;51.150;4.470;2023-04-03T14:36:19;2.38;;;0.70;;
56381;SDS011;50261;51.150;4.470;2023-04-03T14:38:46;3.38;;;0.80;;
56381;SDS011;50261;51.150;4.470;2023-04-03T14:41:13;1.95;;;0.63;;
56381;SDS011;50261;51.150;4.470;2023-04-03T14:43:39;2.20;;;0.98;;
56381;SDS011;50261;51.150;4.470;2023-04-03T14:46:05;3.85;;;1.00;;
56381;SDS011;50261;51.150;4.470;2023-04-03T14:48:34;1.98;;;0.73;;
56381;SDS011;50261;51.150;4.470;2023-04-03T14:50:59;2.92;;;1.08;;
56381;SDS011;50261;51.150;4.470;2023-04-03T14:53:25;3.88;;;1.10;;
56381;SDS011;50261;51.150;4.470;2023-04-03T14:55:51;1.83;;;0.80;;
56381;SDS011;50261;51.150;4.470;2023-04-03T14:58:18;4.80;;;1.17;;
56381;SDS011;50261;51.150;4.470;2023-04-03T15:00:44;1.88;;;0.90;;
56381;SDS011;50261;51.150;4.470;2023-04-03T15:03:17;2.42;;;0.90;;
56381;SDS011;50261;51.150;4.470;2023-04-03T15:05:44;1.73;;;0.88;;
56381;SDS011;50261;51.150;4.470;2023-04-03T15:08:20;2.85;;;1.05;;
56381;SDS011;50261;51.150;4.470;2023-04-03T15:10:47;4.20;;;0.88;;
56381;SDS011;50261;51.150;4.470;2023-04-03T15:13:13;4.30;;;1.02;;
56381;SDS011;50261;51.150;4.470;2023-04-03T15:15:39;5.85;;;1.30;;
56381;SDS011;50261;51.150;4.470;2023-04-03T15:18:05;3.00;;;1.00;;
56381;SDS011;50261;51.150;4.470;2023-04-03T15:20:31;6.88;;;1.20;;
56381;SDS011;50261;51.150;4.470;2023-04-03T15:22:58;3.67;;;0.60;;
56381;SDS011;50261;51.150;4.470;2023-04-03T15:25:26;2.45;;;0.90;;
56381;SDS011;50261;51.150;4.470;2023-04-03T15:27:53;2.25;;;1.02;;
56381;SDS011;50261;51.150;4.470;2023-04-03T15:30:19;1.65;;;1.20;;
56381;SDS011;50261;51.150;4.470;2023-04-03T15:32:45;3.35;;;1.05;;
56381;SDS011;50261;51.150;4.470;2023-04-03T15:35:11;1.85;;;0.80;;
56381;SDS011;50261;51.150;4.470;2023-04-03T15:37:37;1.80;;;0.90;;
56381;SDS011;50261;51.150;4.470;2023-04-03T15:40:03;2.50;;;1.10;;
56381;SDS011;50261;51.150;4.470;2023-04-03T15:42:29;2.63;;;0.88;;
56381;SDS011;50261;51.150;4.470;2023-04-03T15:44:55;3.45;;;1.10;;
56381;SDS011;50261;51.150;4.470;2023-04-03T15:47:21;2.72;;;0.93;;
56381;SDS011;50261;51.150;4.470;2023-04-03T15:49:47;2.33;;;0.82;;
56381;SDS011;50261;51.150;4.470;2023-04-03T15:52:12;2.35;;;1.30;;
56381;SDS011;50261;51.150;4.470;2023-04-03T15:54:38;3.60;;;1.38;;
56381;SDS011;50261;51.150;4.470;2023-04-03T15:57:04;2.78;;;1.27;;
56381;SDS011;50261;51.150;4.470;2023-04-03T15:59:29;1.73;;;0.93;;
56381;SDS011;50261;51.150;4.470;2023-04-03T16:01:57;3.65;;;1.23;;
56381;SDS011;50261;51.150;4.470;2023-04-03T16:04:24;2.20;;;1.10;;
56381;SDS011;50261;51.150;4.470;2023-04-03T16:06:49;3.17;;;0.90;;
56381;SDS011;50261;51.150;4.470;2023-04-03T16:09:15;3.50;;;1.00;;
56381;SDS011;50261;51.150;4.470;2023-04-03T16:11:41;2.10;;;0.98;;
56381;SDS011;50261;51.150;4.470;2023-04-03T16:14:07;3.58;;;0.90;;
56381;SDS011;50261;51.150;4.470;2023-04-03T16:16:33;2.53;;;1.10;;
56381;SDS011;50261;51.150;4.470;2023-04-03T16:18:59;3.40;;;1.50;;
56381;SDS011;50261;51.150;4.470;2023-04-03T16:21:24;3.35;;;1.05;;
56381;SDS011;50261;51.150;4.470;2023-04-03T16:23:52;4.07;;;1.30;;
56381;SDS011;50261;51.150;4.470;2023-04-03T16:26:17;2.83;;;1.35;;
56381;SDS011;50261;51.150;4.470;2023-04-03T16:28:43;2.88;;;1.33;;
56381;SDS011;50261;51.150;4.470;2023-04-03T16:31:09;3.55;;;1.02;;
56381;SDS011;50261;51.150;4.470;2023-04-03T16:33:35;5.32;;;1.35;;